createdAt,value
2018-11-06T00:01:44.135Z,25.53
2018-11-06T00:04:12.633Z,27.13
2018-11-06T00:06:41.191Z,24.03
2018-11-06T00:09:09.755Z,21.97
2018-11-06T00:11:38.296Z,20.67
2018-11-06T00:14:06.810Z,22.20
2018-11-06T00:16:35.313Z,28.70
2018-11-06T00:19:03.825Z,27.70
2018-11-06T00:21:32.431Z,28.27
2018-11-06T00:24:00.950Z,29.83
2018-11-06T00:26:29.442Z,26.53
2018-11-06T00:28:57.922Z,22.90
2018-11-06T00:31:26.440Z,27.07
2018-11-06T00:33:54.990Z,28.43
2018-11-06T00:36:23.618Z,28.60
2018-11-06T00:38:52.142Z,24.67
2018-11-06T00:41:20.651Z,25.13
2018-11-06T00:43:49.195Z,24.97
2018-11-06T00:46:17.726Z,26.83
2018-11-06T00:48:46.325Z,28.60
2018-11-06T00:51:14.886Z,23.73
2018-11-06T00:53:43.421Z,26.60
2018-11-06T00:56:11.991Z,29.60
2018-11-06T00:58:40.539Z,30.67
2018-11-06T01:01:09.046Z,25.57
2018-11-06T01:03:42.654Z,28.20
2018-11-06T01:06:11.259Z,24.53
2018-11-06T01:08:39.768Z,24.97
2018-11-06T01:11:08.315Z,25.03
2018-11-06T01:13:36.872Z,26.33
2018-11-06T01:16:05.918Z,26.87
2018-11-06T01:18:34.606Z,26.27
2018-11-06T01:21:03.273Z,26.17
2018-11-06T01:23:31.791Z,23.73
2018-11-06T01:26:00.428Z,26.07
2018-11-06T01:28:28.995Z,20.43
2018-11-06T01:30:57.674Z,20.07
2018-11-06T01:33:26.267Z,22.57
2018-11-06T01:35:54.842Z,21.63
2018-11-06T01:38:23.424Z,21.27
2018-11-06T01:40:52.025Z,26.27
2018-11-06T01:43:20.735Z,21.77
2018-11-06T01:45:49.299Z,22.40
2018-11-06T01:48:17.982Z,27.23
2018-11-06T01:50:46.584Z,27.53
2018-11-06T01:53:15.215Z,23.67
2018-11-06T01:55:43.834Z,23.17
2018-11-06T01:58:12.413Z,24.10
2018-11-06T02:00:41.009Z,21.37
2018-11-06T02:03:09.655Z,27.40
2018-11-06T02:05:38.361Z,26.77
2018-11-06T02:08:07.038Z,23.07
2018-11-06T02:10:35.788Z,24.97
2018-11-06T02:13:04.594Z,25.53
2018-11-06T02:15:33.328Z,21.73
2018-11-06T02:18:01.965Z,19.97
2018-11-06T02:20:30.525Z,23.07
2018-11-06T02:22:59.164Z,23.23
2018-11-06T02:25:27.829Z,20.80
2018-11-06T02:27:56.461Z,25.37
2018-11-06T02:30:25.067Z,32.80
2018-11-06T02:32:53.779Z,32.67
2018-11-06T02:35:22.411Z,35.73
2018-11-06T02:37:51.042Z,29.93
2018-11-06T02:40:19.711Z,24.10
2018-11-06T02:42:48.289Z,25.17
2018-11-06T02:45:16.923Z,22.00
2018-11-06T02:47:45.516Z,22.87
2018-11-06T02:50:14.938Z,19.50
2018-11-06T02:52:44.456Z,20.60
2018-11-06T02:55:13.611Z,23.07
2018-11-06T02:57:42.739Z,20.17
2018-11-06T03:00:14.118Z,21.87
2018-11-06T03:02:43.189Z,21.90
2018-11-06T03:05:11.807Z,25.60
2018-11-06T03:07:40.751Z,23.43
2018-11-06T03:10:10.495Z,24.97
2018-11-06T03:12:39.992Z,21.23
2018-11-06T03:15:09.410Z,21.40
2018-11-06T03:17:38.203Z,23.63
2018-11-06T03:20:07.092Z,26.00
2018-11-06T03:22:35.658Z,26.13
2018-11-06T03:25:04.506Z,30.93
2018-11-06T03:27:33.190Z,27.87
2018-11-06T03:30:01.731Z,25.67
2018-11-06T03:32:30.543Z,24.00
2018-11-06T03:34:59.161Z,23.77
2018-11-06T03:37:27.817Z,24.53
2018-11-06T03:39:56.463Z,28.60
2018-11-06T03:42:25.059Z,34.03
2018-11-06T03:44:53.624Z,41.33
2018-11-06T03:47:22.282Z,39.53
2018-11-06T03:49:50.829Z,34.83
2018-11-06T03:52:19.430Z,34.17
2018-11-06T03:54:48.010Z,41.83
2018-11-06T03:57:16.523Z,28.97
2018-11-06T03:59:45.096Z,21.90
2018-11-06T04:02:13.703Z,26.90
2018-11-06T04:04:42.262Z,23.87
2018-11-06T04:07:10.858Z,22.57
2018-11-06T04:09:39.447Z,23.23
2018-11-06T04:12:07.993Z,19.80
2018-11-06T04:14:36.538Z,24.37
2018-11-06T04:17:05.035Z,30.03
2018-11-06T04:19:33.773Z,24.73
2018-11-06T04:22:02.518Z,25.53
2018-11-06T04:24:31.040Z,31.10
2018-11-06T04:26:59.553Z,26.60
2018-11-06T04:29:28.062Z,23.70
2018-11-06T04:31:56.528Z,23.33
2018-11-06T04:34:25.054Z,22.73
2018-11-06T04:36:53.560Z,22.47
2018-11-06T04:39:22.135Z,22.17
2018-11-06T04:41:50.614Z,22.43
2018-11-06T04:44:19.222Z,20.50
2018-11-06T04:46:47.925Z,20.93
2018-11-06T04:49:16.414Z,21.57
2018-11-06T04:51:44.878Z,17.73
2018-11-06T04:54:13.363Z,21.40
2018-11-06T04:56:41.794Z,25.90
2018-11-06T04:59:10.274Z,26.87
2018-11-06T05:01:38.759Z,22.20
2018-11-06T05:04:07.298Z,23.17
2018-11-06T05:06:35.751Z,25.30
2018-11-06T05:09:05.551Z,22.57
2018-11-06T05:11:34.158Z,23.27
2018-11-06T05:14:02.695Z,22.07
2018-11-06T05:16:31.259Z,23.90
2018-11-06T05:18:59.856Z,26.70
2018-11-06T05:21:28.375Z,31.17
2018-11-06T05:23:56.991Z,67.33
2018-11-06T05:26:25.527Z,76.67
2018-11-06T05:28:54.179Z,76.83
2018-11-06T05:31:22.663Z,71.60
2018-11-06T05:33:51.163Z,114.53
2018-11-06T05:36:19.858Z,95.70
2018-11-06T05:38:48.576Z,120.17
2018-11-06T05:41:17.059Z,97.27
2018-11-06T05:43:45.608Z,91.13
2018-11-06T05:46:14.109Z,108.63
2018-11-06T05:48:42.647Z,119.47
2018-11-06T05:51:11.158Z,110.57
2018-11-06T05:53:39.729Z,96.83
2018-11-06T05:56:08.275Z,102.70
2018-11-06T05:58:36.771Z,89.80
2018-11-06T06:01:06.375Z,80.60
2018-11-06T06:03:34.858Z,65.37
2018-11-06T06:06:03.373Z,71.07
2018-11-06T06:08:31.944Z,67.13
2018-11-06T06:11:00.574Z,68.93
2018-11-06T06:13:29.054Z,51.83
2018-11-06T06:15:57.637Z,55.13
2018-11-06T06:18:26.130Z,45.37
2018-11-06T06:20:54.671Z,50.67
2018-11-06T06:23:23.182Z,64.43
2018-11-06T06:25:51.743Z,46.63
2018-11-06T06:28:20.301Z,51.17
2018-11-06T06:30:48.883Z,44.37
2018-11-06T06:33:17.402Z,42.73
2018-11-06T06:35:45.961Z,41.27
2018-11-06T06:38:14.454Z,44.27
2018-11-06T06:40:43.004Z,42.53
2018-11-06T06:43:11.480Z,45.10
2018-11-06T06:45:39.982Z,41.40
2018-11-06T06:48:08.523Z,42.27
2018-11-06T06:50:37.054Z,41.63
2018-11-06T06:53:05.683Z,45.23
2018-11-06T06:55:34.179Z,39.17
2018-11-06T06:58:02.639Z,40.00
2018-11-06T07:00:31.135Z,43.30
2018-11-06T07:02:59.632Z,41.67
2018-11-06T07:05:28.148Z,39.97
2018-11-06T07:07:56.631Z,35.43
2018-11-06T07:10:25.173Z,34.23
2018-11-06T07:12:53.747Z,37.13
2018-11-06T07:15:22.913Z,35.40
2018-11-06T07:17:52.015Z,33.33
2018-11-06T07:20:21.902Z,33.77
2018-11-06T07:22:50.550Z,33.03
2018-11-06T07:25:19.079Z,31.40
2018-11-06T07:27:48.147Z,30.13
2018-11-06T07:30:18.857Z,33.73
2018-11-06T07:32:47.523Z,28.67
2018-11-06T07:35:16.734Z,28.43
2018-11-06T07:37:45.438Z,28.20
2018-11-06T07:40:15.058Z,29.77
2018-11-06T07:42:43.530Z,29.00
2018-11-06T07:45:14.505Z,23.33
2018-11-06T07:47:42.985Z,28.73
2018-11-06T07:50:12.197Z,24.90
2018-11-06T07:52:40.886Z,23.30
2018-11-06T07:55:11.646Z,25.03
2018-11-06T07:57:40.258Z,23.07
2018-11-06T08:00:14.751Z,25.80
2018-11-06T08:02:43.936Z,23.33
2018-11-06T08:05:12.477Z,24.33
2018-11-06T08:07:40.999Z,25.83
2018-11-06T08:10:10.365Z,23.60
2018-11-06T08:12:39.617Z,23.47
2018-11-06T08:15:08.506Z,24.90
2018-11-06T08:17:37.099Z,22.43
2018-11-06T08:20:06.015Z,21.17
2018-11-06T08:22:34.554Z,20.67
2018-11-06T08:25:03.135Z,21.80
2018-11-06T08:27:31.604Z,20.47
2018-11-06T08:30:00.063Z,18.60
2018-11-06T08:32:28.918Z,18.93
2018-11-06T08:34:57.014Z,19.70
2018-11-06T08:37:25.493Z,19.10
2018-11-06T08:39:53.933Z,19.80
2018-11-06T08:42:22.469Z,19.13
2018-11-06T08:44:50.858Z,18.70
2018-11-06T08:47:19.332Z,17.40
2018-11-06T08:49:47.758Z,15.80
2018-11-06T08:52:16.237Z,15.23
2018-11-06T08:54:44.836Z,17.67
2018-11-06T08:57:13.338Z,15.93
2018-11-06T08:59:41.809Z,15.97
2018-11-06T09:02:10.333Z,16.87
2018-11-06T09:04:38.756Z,16.63
2018-11-06T09:07:07.278Z,16.73
2018-11-06T09:09:35.730Z,16.90
2018-11-06T09:12:04.190Z,16.20
2018-11-06T09:14:32.634Z,16.57
2018-11-06T09:17:01.085Z,17.97
2018-11-06T09:19:29.526Z,17.37
2018-11-06T09:21:57.953Z,16.20
2018-11-06T09:24:26.413Z,15.87
2018-11-06T09:26:54.989Z,16.30
2018-11-06T09:29:23.441Z,17.30
2018-11-06T09:31:51.891Z,18.63
2018-11-06T09:34:20.398Z,17.87
2018-11-06T09:36:48.875Z,16.83
2018-11-06T09:39:17.338Z,16.97
2018-11-06T09:41:45.783Z,17.17
2018-11-06T09:44:14.247Z,17.27
2018-11-06T09:46:42.755Z,17.87
2018-11-06T09:49:11.235Z,16.80
2018-11-06T09:51:39.719Z,16.83
2018-11-06T09:54:08.273Z,17.23
2018-11-06T09:56:36.777Z,16.73
2018-11-06T09:59:05.318Z,16.43
2018-11-06T10:01:33.775Z,15.13
2018-11-06T10:04:02.292Z,16.23
2018-11-06T10:06:30.859Z,15.53
2018-11-06T10:08:59.301Z,15.70
2018-11-06T10:11:27.830Z,14.80
2018-11-06T10:13:56.242Z,15.30
2018-11-06T10:16:24.701Z,15.10
2018-11-06T10:18:53.786Z,14.20
2018-11-06T10:21:22.294Z,15.47
2018-11-06T10:23:50.809Z,14.80
2018-11-06T10:26:19.357Z,17.73
2018-11-06T10:28:47.813Z,14.47
2018-11-06T10:31:16.265Z,14.40
2018-11-06T10:33:45.162Z,13.77
2018-11-06T10:36:13.645Z,13.73
2018-11-06T10:38:42.094Z,14.17
2018-11-06T10:41:10.574Z,13.43
2018-11-06T10:43:39.066Z,13.07
2018-11-06T10:46:07.588Z,12.53
2018-11-06T10:48:36.185Z,13.23
2018-11-06T10:51:04.902Z,12.60
2018-11-06T10:53:33.409Z,13.17
2018-11-06T10:56:01.909Z,12.43
2018-11-06T10:58:30.389Z,12.07
2018-11-06T11:01:04.000Z,12.27
2018-11-06T11:03:35.489Z,13.83
2018-11-06T11:06:03.970Z,14.00
2018-11-06T11:08:32.418Z,13.33
2018-11-06T11:11:00.917Z,12.47
2018-11-06T11:13:30.114Z,14.77
2018-11-06T11:15:58.731Z,13.90
2018-11-06T11:18:27.177Z,14.77
2018-11-06T11:20:56.234Z,15.17
2018-11-06T11:23:24.687Z,13.80
2018-11-06T11:25:53.227Z,15.87
2018-11-06T11:28:21.721Z,14.23
2018-11-06T11:30:50.177Z,15.40
2018-11-06T11:33:19.818Z,14.97
2018-11-06T11:35:48.282Z,15.30
2018-11-06T11:38:16.757Z,15.10
2018-11-06T11:40:45.224Z,14.30
2018-11-06T11:43:13.701Z,80.00
2018-11-06T11:45:42.202Z,13.50
2018-11-06T11:48:10.597Z,13.23
2018-11-06T11:50:39.065Z,98.23
2018-11-06T11:53:07.525Z,13.53
2018-11-06T11:55:36.001Z,15.03
2018-11-06T11:58:04.674Z,13.20
2018-11-06T12:00:37.164Z,13.37
2018-11-06T12:03:06.538Z,14.50
2018-11-06T12:05:35.004Z,13.70
2018-11-06T12:08:03.449Z,14.10
2018-11-06T12:10:32.096Z,13.10
2018-11-06T12:13:00.601Z,13.37
2018-11-06T12:15:29.131Z,13.80
2018-11-06T12:17:57.865Z,18.90
2018-11-06T12:20:27.106Z,13.20
2018-11-06T12:22:55.569Z,13.20
2018-11-06T12:25:24.414Z,14.27
2018-11-06T12:27:52.521Z,13.40
2018-11-06T12:30:21.229Z,14.30
2018-11-06T12:32:49.696Z,16.57
2018-11-06T12:35:18.123Z,22.37
2018-11-06T12:37:46.610Z,16.37
2018-11-06T12:40:15.442Z,15.40
2018-11-06T12:42:44.068Z,15.30
2018-11-06T12:45:16.063Z,15.10
2018-11-06T12:47:45.125Z,15.37
2018-11-06T12:50:13.663Z,14.30
2018-11-06T12:52:42.269Z,14.43
2018-11-06T12:55:12.384Z,13.63
2018-11-06T12:57:40.846Z,14.03
2018-11-06T13:00:13.022Z,14.03
2018-11-06T13:02:41.616Z,13.63
2018-11-06T13:05:10.473Z,14.03
2018-11-06T13:07:40.022Z,12.57
2018-11-06T13:10:08.900Z,13.30
2018-11-06T13:12:37.461Z,13.20
2018-11-06T13:15:06.705Z,13.13
2018-11-06T13:17:35.586Z,13.87
2018-11-06T13:20:04.498Z,12.37
2018-11-06T13:22:32.961Z,12.83
2018-11-06T13:25:01.402Z,13.67
2018-11-06T13:27:29.890Z,14.57
2018-11-06T13:29:58.329Z,14.07
2018-11-06T13:32:26.911Z,14.87
2018-11-06T13:34:55.260Z,14.50
2018-11-06T13:37:23.717Z,14.17
2018-11-06T13:39:52.154Z,15.40
2018-11-06T13:42:20.708Z,15.80
2018-11-06T13:44:49.412Z,15.47
2018-11-06T13:47:17.550Z,16.73
2018-11-06T13:49:45.977Z,16.00
2018-11-06T13:52:14.595Z,16.60
2018-11-06T13:54:42.908Z,18.43
2018-11-06T13:57:11.381Z,16.23
2018-11-06T13:59:40.189Z,17.87
2018-11-06T14:02:08.656Z,17.83
2018-11-06T14:04:37.072Z,19.20
2018-11-06T14:07:05.735Z,22.77
2018-11-06T14:09:34.188Z,20.17
2018-11-06T14:12:02.659Z,19.87
2018-11-06T14:14:31.128Z,22.50
2018-11-06T14:16:59.556Z,21.73
2018-11-06T14:19:27.966Z,21.07
2018-11-06T14:21:56.441Z,21.57
2018-11-06T14:24:24.902Z,22.67
2018-11-06T14:26:53.406Z,22.93
2018-11-06T14:29:21.798Z,21.67
2018-11-06T14:31:50.324Z,20.70
2018-11-06T14:34:18.711Z,20.07
2018-11-06T14:36:47.151Z,20.17
2018-11-06T14:39:15.611Z,20.37
2018-11-06T14:41:44.009Z,21.43
2018-11-06T14:44:12.453Z,19.87
2018-11-06T14:46:40.922Z,22.80
2018-11-06T14:49:09.400Z,23.33
2018-11-06T14:51:37.793Z,19.60
2018-11-06T14:54:06.259Z,18.60
2018-11-06T14:56:34.729Z,18.00
2018-11-06T14:59:03.161Z,19.33
2018-11-06T15:01:31.626Z,21.60
2018-11-06T15:04:00.281Z,19.70
2018-11-06T15:06:28.690Z,17.47
2018-11-06T15:08:57.114Z,17.57
2018-11-06T15:11:25.539Z,20.07
2018-11-06T15:13:54.015Z,19.33
2018-11-06T15:16:22.453Z,19.83
2018-11-06T15:18:50.892Z,20.03
2018-11-06T15:21:19.318Z,19.40
2018-11-06T15:23:47.762Z,18.40
2018-11-06T15:26:16.188Z,17.90
2018-11-06T15:28:44.625Z,17.53
2018-11-06T15:31:13.037Z,16.80
2018-11-06T15:33:41.650Z,16.17
2018-11-06T15:36:10.069Z,15.20
2018-11-06T15:38:38.517Z,16.27
2018-11-06T15:41:07.034Z,16.70
2018-11-06T15:43:35.409Z,16.23
2018-11-06T15:46:03.954Z,19.10
2018-11-06T15:48:32.454Z,15.63
2018-11-06T15:51:00.865Z,18.20
2018-11-06T15:53:29.292Z,18.03
2018-11-06T15:55:57.905Z,17.80
2018-11-06T15:58:26.341Z,18.27
2018-11-06T16:00:54.913Z,18.87
2018-11-06T16:03:23.249Z,19.33
2018-11-06T16:05:51.698Z,20.90
2018-11-06T16:08:20.236Z,18.77
2018-11-06T16:10:48.702Z,18.00
2018-11-06T16:13:17.174Z,19.33
2018-11-06T16:15:45.609Z,19.23
2018-11-06T16:18:14.040Z,19.23
2018-11-06T16:20:42.528Z,19.23
2018-11-06T16:23:10.957Z,18.90
2018-11-06T16:25:39.464Z,18.03
2018-11-06T16:28:07.898Z,18.73
2018-11-06T16:30:36.346Z,18.17
2018-11-06T16:33:04.938Z,17.83
2018-11-06T16:35:33.394Z,16.33
2018-11-06T16:38:01.842Z,17.17
2018-11-06T16:40:30.321Z,15.60
2018-11-06T16:42:58.766Z,16.50
2018-11-06T16:45:27.213Z,17.67
2018-11-06T16:47:55.658Z,16.50
2018-11-06T16:50:24.157Z,17.20
2018-11-06T16:52:52.617Z,18.60
2018-11-06T16:55:21.228Z,16.63
2018-11-06T16:57:49.660Z,18.70
2018-11-06T17:00:20.300Z,19.97
2018-11-06T17:02:48.545Z,21.23
2018-11-06T17:05:16.991Z,17.60
2018-11-06T17:07:45.697Z,16.77
2018-11-06T17:10:14.948Z,17.07
2018-11-06T17:12:43.421Z,28.00
2018-11-06T17:15:15.201Z,20.10
2018-11-06T17:17:44.573Z,19.20
2018-11-06T17:20:13.571Z,20.67
2018-11-06T17:22:41.997Z,16.00
2018-11-06T17:25:12.195Z,20.87
2018-11-06T17:27:40.657Z,19.53
2018-11-06T17:30:11.091Z,20.30
2018-11-06T17:32:40.034Z,20.70
2018-11-06T17:35:09.883Z,20.67
2018-11-06T17:37:38.994Z,22.03
2018-11-06T17:40:10.570Z,20.00
2018-11-06T17:42:39.050Z,19.87
2018-11-06T17:45:09.427Z,19.17
2018-11-06T17:47:38.030Z,17.07
2018-11-06T17:50:07.921Z,21.83
2018-11-06T17:52:36.381Z,18.47
2018-11-06T17:55:05.133Z,22.23
2018-11-06T17:57:33.514Z,21.27
2018-11-06T18:00:01.946Z,19.93
2018-11-06T18:02:30.409Z,17.77
2018-11-06T18:04:58.836Z,19.37
2018-11-06T18:07:27.274Z,20.37
2018-11-06T18:09:55.686Z,23.27
2018-11-06T18:12:24.174Z,21.10
2018-11-06T18:14:52.585Z,23.47
2018-11-06T18:17:21.092Z,23.53
2018-11-06T18:19:49.511Z,24.80
2018-11-06T18:22:17.949Z,22.90
2018-11-06T18:24:46.400Z,19.67
2018-11-06T18:27:14.841Z,25.47
2018-11-06T18:29:43.270Z,21.33
2018-11-06T18:32:11.768Z,20.07
2018-11-06T18:34:40.138Z,23.07
2018-11-06T18:37:08.590Z,21.97
2018-11-06T18:39:37.017Z,24.23
2018-11-06T18:42:05.518Z,19.43
2018-11-06T18:44:33.961Z,18.80
2018-11-06T18:47:02.405Z,19.20
2018-11-06T18:49:30.889Z,18.67
2018-11-06T18:51:59.302Z,18.63
2018-11-06T18:54:27.726Z,21.07
2018-11-06T18:56:56.170Z,21.07
2018-11-06T18:59:24.594Z,37.03
2018-11-06T19:01:53.045Z,28.73
2018-11-06T19:04:21.508Z,24.87
2018-11-06T19:06:49.954Z,27.57
2018-11-06T19:09:18.382Z,25.80
2018-11-06T19:11:46.861Z,25.40
2018-11-06T19:14:15.280Z,23.67
2018-11-06T19:16:43.746Z,21.30
2018-11-06T19:19:12.150Z,22.33
2018-11-06T19:21:40.563Z,23.23
2018-11-06T19:24:09.100Z,21.83
2018-11-06T19:26:37.401Z,21.27
2018-11-06T19:29:06.137Z,19.67
2018-11-06T19:31:34.557Z,24.50
2018-11-06T19:34:03.093Z,24.10
2018-11-06T19:36:31.599Z,19.23
2018-11-06T19:38:59.981Z,24.03
2018-11-06T19:41:28.393Z,24.53
2018-11-06T19:43:56.834Z,23.80
2018-11-06T19:46:25.229Z,22.03
2018-11-06T19:48:53.683Z,31.27
2018-11-06T19:51:22.106Z,22.57
2018-11-06T19:53:50.596Z,26.97
2018-11-06T19:56:19.010Z,26.37
2018-11-06T19:58:47.415Z,24.73
2018-11-06T20:01:15.853Z,24.67
2018-11-06T20:03:44.310Z,22.83
2018-11-06T20:06:12.722Z,23.60
2018-11-06T20:08:41.155Z,30.63
2018-11-06T20:11:09.572Z,33.23
2018-11-06T20:13:38.039Z,25.53
2018-11-06T20:16:06.502Z,26.70
2018-11-06T20:18:34.978Z,22.43
2018-11-06T20:21:03.433Z,22.63
2018-11-06T20:23:31.921Z,21.17
2018-11-06T20:26:00.906Z,21.83
2018-11-06T20:28:29.341Z,20.77
2018-11-06T20:30:57.766Z,21.43
2018-11-06T20:33:26.311Z,21.20
2018-11-06T20:35:54.662Z,19.47
2018-11-06T20:38:23.496Z,24.13
2018-11-06T20:40:51.914Z,19.70
2018-11-06T20:43:20.430Z,21.83
2018-11-06T20:45:48.813Z,18.70
2018-11-06T20:48:17.245Z,23.47
2018-11-06T20:50:45.902Z,21.73
2018-11-06T20:53:14.348Z,24.03
2018-11-06T20:55:43.277Z,19.20
2018-11-06T20:58:11.657Z,16.60
2018-11-06T21:00:40.310Z,18.83
2018-11-06T21:03:08.748Z,21.20
2018-11-06T21:05:37.209Z,18.10
2018-11-06T21:08:05.771Z,18.77
2018-11-06T21:10:34.197Z,19.83
2018-11-06T21:13:02.682Z,21.07
2018-11-06T21:15:31.107Z,20.10
2018-11-06T21:17:59.641Z,19.67
2018-11-06T21:20:28.006Z,21.63
2018-11-06T21:22:56.487Z,19.17
2018-11-06T21:25:24.970Z,17.47
2018-11-06T21:27:53.358Z,19.33
2018-11-06T21:30:22.150Z,16.60
2018-11-06T21:32:51.770Z,19.33
2018-11-06T21:35:20.315Z,19.00
2018-11-06T21:37:48.744Z,18.10
2018-11-06T21:40:22.050Z,21.00
2018-11-06T21:42:50.891Z,18.07
2018-11-06T21:45:19.594Z,19.73
2018-11-06T21:47:48.790Z,21.10
2018-11-06T21:50:17.616Z,18.50
2018-11-06T21:52:46.095Z,18.10
2018-11-06T21:55:15.899Z,19.30
2018-11-06T21:57:44.304Z,16.90
2018-11-06T22:00:14.410Z,16.93
2018-11-06T22:02:42.851Z,17.77
2018-11-06T22:05:12.488Z,16.33
2018-11-06T22:07:41.381Z,17.13
2018-11-06T22:10:12.031Z,18.33
2018-11-06T22:12:41.089Z,17.57
2018-11-06T22:15:10.807Z,16.37
2018-11-06T22:17:39.749Z,17.53
2018-11-06T22:20:09.657Z,19.30
2018-11-06T22:22:38.101Z,14.93
2018-11-06T22:25:06.696Z,14.67
2018-11-06T22:27:35.212Z,13.67
2018-11-06T22:30:03.831Z,14.50
2018-11-06T22:32:32.242Z,17.70
2018-11-06T22:35:00.690Z,14.57
2018-11-06T22:37:29.177Z,18.47
2018-11-06T22:39:57.555Z,13.87
2018-11-06T22:42:25.970Z,14.00
2018-11-06T22:44:54.398Z,14.60
2018-11-06T22:47:22.837Z,13.47
2018-11-06T22:49:51.274Z,13.83
2018-11-06T22:52:19.709Z,12.90
2018-11-06T22:54:48.115Z,12.43
2018-11-06T22:57:16.574Z,11.37
2018-11-06T22:59:44.990Z,11.23
2018-11-06T23:02:13.446Z,12.90
2018-11-06T23:04:41.878Z,12.87
2018-11-06T23:07:15.832Z,11.63
2018-11-06T23:09:44.198Z,11.67
2018-11-06T23:12:12.658Z,12.40
2018-11-06T23:14:41.078Z,12.17
2018-11-06T23:17:09.544Z,11.67
2018-11-06T23:19:37.994Z,12.63
2018-11-06T23:22:06.571Z,12.93
2018-11-06T23:24:34.993Z,11.60
2018-11-06T23:27:03.461Z,13.73
2018-11-06T23:29:31.894Z,11.33
2018-11-06T23:32:00.394Z,10.97
2018-11-06T23:34:28.810Z,11.07
2018-11-06T23:36:57.240Z,10.23
2018-11-06T23:39:25.682Z,9.93
2018-11-06T23:41:54.118Z,8.50
2018-11-06T23:44:22.541Z,9.23
2018-11-06T23:46:50.984Z,9.43
2018-11-06T23:49:19.438Z,11.23
2018-11-06T23:51:47.874Z,9.37
2018-11-06T23:54:16.323Z,10.13
2018-11-06T23:56:44.809Z,11.30
2018-11-06T23:59:13.222Z,10.00
